sensor_id;sensor_type;location;lat;lon;timestamp;P1;durP1;ratioP1;P2;durP2;ratioP2
36105;SDS011;22159;55.736;38.048;2022-08-19T00:00:12;4.13;;;3.10;;
36105;SDS011;22159;55.736;38.048;2022-08-19T00:02:40;3.70;;;2.72;;
36105;SDS011;22159;55.736;38.048;2022-08-19T00:05:07;3.55;;;3.25;;
36105;SDS011;22159;55.736;38.048;2022-08-19T00:07:33;3.22;;;2.83;;
36105;SDS011;22159;55.736;38.048;2022-08-19T00:09:59;3.00;;;2.70;;
36105;SDS011;22159;55.736;38.048;2022-08-19T00:12:26;3.30;;;2.75;;
36105;SDS011;22159;55.736;38.048;2022-08-19T00:14:52;4.40;;;3.30;;
36105;SDS011;22159;55.736;38.048;2022-08-19T00:17:19;3.30;;;3.00;;
36105;SDS011;22159;55.736;38.048;2022-08-19T00:19:45;4.22;;;2.95;;
36105;SDS011;22159;55.736;38.048;2022-08-19T00:22:11;3.75;;;3.00;;
36105;SDS011;22159;55.736;38.048;2022-08-19T00:24:37;3.15;;;2.85;;
36105;SDS011;22159;55.736;38.048;2022-08-19T00:27:03;3.97;;;3.30;;
36105;SDS011;22159;55.736;38.048;2022-08-19T00:29:30;5.50;;;3.30;;
36105;SDS011;22159;55.736;38.048;2022-08-19T00:31:56;4.13;;;3.17;;
36105;SDS011;22159;55.736;38.048;2022-08-19T00:34:23;2.95;;;2.70;;
36105;SDS011;22159;55.736;38.048;2022-08-19T00:36:52;3.28;;;2.97;;
36105;SDS011;22159;55.736;38.048;2022-08-19T00:39:18;3.35;;;3.05;;
36105;SDS011;22159;55.736;38.048;2022-08-19T00:41:45;3.10;;;2.60;;
36105;SDS011;22159;55.736;38.048;2022-08-19T00:44:15;3.13;;;2.78;;
36105;SDS011;22159;55.736;38.048;2022-08-19T00:46:42;3.22;;;2.92;;
36105;SDS011;22159;55.736;38.048;2022-08-19T00:49:19;4.32;;;3.20;;
36105;SDS011;22159;55.736;38.048;2022-08-19T00:51:47;3.90;;;3.30;;
36105;SDS011;22159;55.736;38.048;2022-08-19T00:54:14;4.05;;;3.20;;
36105;SDS011;22159;55.736;38.048;2022-08-19T00:56:41;4.45;;;3.10;;
36105;SDS011;22159;55.736;38.048;2022-08-19T00:59:07;4.38;;;3.08;;
36105;SDS011;22159;55.736;38.048;2022-08-19T01:01:35;3.63;;;2.97;;
36105;SDS011;22159;55.736;38.048;2022-08-19T01:04:01;3.58;;;3.13;;
36105;SDS011;22159;55.736;38.048;2022-08-19T01:06:27;3.25;;;2.80;;
36105;SDS011;22159;55.736;38.048;2022-08-19T01:08:57;6.13;;;3.00;;
36105;SDS011;22159;55.736;38.048;2022-08-19T01:11:23;3.33;;;3.03;;
36105;SDS011;22159;55.736;38.048;2022-08-19T01:13:49;3.90;;;3.35;;
36105;SDS011;22159;55.736;38.048;2022-08-19T01:16:16;3.03;;;2.80;;
36105;SDS011;22159;55.736;38.048;2022-08-19T01:18:43;3.25;;;2.80;;
36105;SDS011;22159;55.736;38.048;2022-08-19T01:23:50;3.63;;;3.20;;
36105;SDS011;22159;55.736;38.048;2022-08-19T01:26:18;4.53;;;3.08;;
36105;SDS011;22159;55.736;38.048;2022-08-19T01:28:45;5.30;;;3.55;;
36105;SDS011;22159;55.736;38.048;2022-08-19T01:31:16;3.72;;;3.40;;
36105;SDS011;22159;55.736;38.048;2022-08-19T01:33:43;4.28;;;2.97;;
36105;SDS011;22159;55.736;38.048;2022-08-19T01:36:14;3.47;;;3.15;;
36105;SDS011;22159;55.736;38.048;2022-08-19T01:38:42;3.40;;;3.10;;
36105;SDS011;22159;55.736;38.048;2022-08-19T01:41:09;5.55;;;3.45;;
36105;SDS011;22159;55.736;38.048;2022-08-19T01:43:36;5.43;;;3.10;;
36105;SDS011;22159;55.736;38.048;2022-08-19T01:46:02;3.78;;;3.38;;
36105;SDS011;22159;55.736;38.048;2022-08-19T01:48:38;3.63;;;3.22;;
36105;SDS011;22159;55.736;38.048;2022-08-19T01:51:05;3.85;;;2.90;;
36105;SDS011;22159;55.736;38.048;2022-08-19T01:53:31;4.30;;;3.05;;
36105;SDS011;22159;55.736;38.048;2022-08-19T01:55:58;3.30;;;3.00;;
36105;SDS011;22159;55.736;38.048;2022-08-19T01:58:25;4.63;;;3.55;;
36105;SDS011;22159;55.736;38.048;2022-08-19T02:00:55;4.32;;;3.50;;
36105;SDS011;22159;55.736;38.048;2022-08-19T02:03:21;4.65;;;3.33;;
36105;SDS011;22159;55.736;38.048;2022-08-19T02:05:47;3.55;;;3.25;;
36105;SDS011;22159;55.736;38.048;2022-08-19T02:08:15;5.25;;;3.58;;
36105;SDS011;22159;55.736;38.048;2022-08-19T02:10:42;3.90;;;3.50;;
36105;SDS011;22159;55.736;38.048;2022-08-19T02:13:09;4.95;;;3.28;;
36105;SDS011;22159;55.736;38.048;2022-08-19T02:15:35;4.15;;;3.20;;
36105;SDS011;22159;55.736;38.048;2022-08-19T02:18:02;4.65;;;3.45;;
36105;SDS011;22159;55.736;38.048;2022-08-19T02:20:28;4.65;;;3.55;;
36105;SDS011;22159;55.736;38.048;2022-08-19T02:22:54;4.22;;;3.47;;
36105;SDS011;22159;55.736;38.048;2022-08-19T02:25:20;3.75;;;3.35;;
36105;SDS011;22159;55.736;38.048;2022-08-19T02:27:46;3.95;;;3.53;;
36105;SDS011;22159;55.736;38.048;2022-08-19T02:30:13;5.25;;;3.65;;
36105;SDS011;22159;55.736;38.048;2022-08-19T02:32:40;5.28;;;3.53;;
36105;SDS011;22159;55.736;38.048;2022-08-19T02:35:06;5.43;;;4.00;;
36105;SDS011;22159;55.736;38.048;2022-08-19T02:37:33;4.70;;;3.53;;
36105;SDS011;22159;55.736;38.048;2022-08-19T02:40:18;4.38;;;3.97;;
36105;SDS011;22159;55.736;38.048;2022-08-19T02:42:44;4.40;;;3.50;;
36105;SDS011;22159;55.736;38.048;2022-08-19T02:45:11;6.35;;;3.63;;
36105;SDS011;22159;55.736;38.048;2022-08-19T02:47:37;5.10;;;3.50;;
36105;SDS011;22159;55.736;38.048;2022-08-19T02:50:04;5.63;;;3.42;;
36105;SDS011;22159;55.736;38.048;2022-08-19T02:52:31;3.85;;;3.03;;
36105;SDS011;22159;55.736;38.048;2022-08-19T02:54:57;4.10;;;3.35;;
36105;SDS011;22159;55.736;38.048;2022-08-19T02:57:23;4.43;;;3.50;;
36105;SDS011;22159;55.736;38.048;2022-08-19T02:59:49;4.00;;;3.50;;
36105;SDS011;22159;55.736;38.048;2022-08-19T03:02:16;4.25;;;3.50;;
36105;SDS011;22159;55.736;38.048;2022-08-19T03:04:42;5.32;;;3.63;;
36105;SDS011;22159;55.736;38.048;2022-08-19T03:07:08;7.22;;;3.20;;
36105;SDS011;22159;55.736;38.048;2022-08-19T03:09:36;7.25;;;3.65;;
36105;SDS011;22159;55.736;38.048;2022-08-19T03:12:03;5.07;;;3.63;;
36105;SDS011;22159;55.736;38.048;2022-08-19T03:14:30;6.65;;;3.88;;
36105;SDS011;22159;55.736;38.048;2022-08-19T03:16:56;5.55;;;4.47;;
36105;SDS011;22159;55.736;38.048;2022-08-19T03:19:22;5.32;;;4.57;;
36105;SDS011;22159;55.736;38.048;2022-08-19T03:21:49;6.35;;;4.32;;
36105;SDS011;22159;55.736;38.048;2022-08-19T03:24:15;7.28;;;4.68;;
36105;SDS011;22159;55.736;38.048;2022-08-19T03:26:43;5.30;;;4.80;;
36105;SDS011;22159;55.736;38.048;2022-08-19T03:29:10;6.28;;;4.88;;
36105;SDS011;22159;55.736;38.048;2022-08-19T03:31:37;5.97;;;4.82;;
36105;SDS011;22159;55.736;38.048;2022-08-19T03:34:04;6.82;;;5.07;;
36105;SDS011;22159;55.736;38.048;2022-08-19T03:36:30;6.47;;;4.90;;
36105;SDS011;22159;55.736;38.048;2022-08-19T03:38:57;6.95;;;5.20;;
36105;SDS011;22159;55.736;38.048;2022-08-19T03:41:25;5.50;;;4.65;;
36105;SDS011;22159;55.736;38.048;2022-08-19T03:43:51;7.38;;;4.93;;
36105;SDS011;22159;55.736;38.048;2022-08-19T03:46:19;7.65;;;5.20;;
36105;SDS011;22159;55.736;38.048;2022-08-19T03:48:46;7.50;;;5.28;;
36105;SDS011;22159;55.736;38.048;2022-08-19T03:51:16;7.30;;;5.22;;
36105;SDS011;22159;55.736;38.048;2022-08-19T03:53:43;8.18;;;5.43;;
36105;SDS011;22159;55.736;38.048;2022-08-19T03:56:09;8.98;;;5.20;;
36105;SDS011;22159;55.736;38.048;2022-08-19T03:58:36;7.63;;;5.57;;
36105;SDS011;22159;55.736;38.048;2022-08-19T04:01:02;8.98;;;6.10;;
36105;SDS011;22159;55.736;38.048;2022-08-19T04:03:34;6.97;;;5.13;;
36105;SDS011;22159;55.736;38.048;2022-08-19T04:06:14;7.30;;;5.40;;
36105;SDS011;22159;55.736;38.048;2022-08-19T04:08:41;10.57;;;6.03;;
36105;SDS011;22159;55.736;38.048;2022-08-19T04:11:12;7.53;;;6.35;;
36105;SDS011;22159;55.736;38.048;2022-08-19T04:13:38;11.25;;;6.05;;
36105;SDS011;22159;55.736;38.048;2022-08-19T04:16:04;11.15;;;5.57;;
36105;SDS011;22159;55.736;38.048;2022-08-19T04:18:31;7.28;;;5.47;;
36105;SDS011;22159;55.736;38.048;2022-08-19T04:20:58;6.45;;;5.53;;
36105;SDS011;22159;55.736;38.048;2022-08-19T04:23:25;9.98;;;6.07;;
36105;SDS011;22159;55.736;38.048;2022-08-19T04:25:53;8.30;;;5.70;;
36105;SDS011;22159;55.736;38.048;2022-08-19T04:28:19;8.63;;;5.72;;
36105;SDS011;22159;55.736;38.048;2022-08-19T04:30:50;7.03;;;4.88;;
36105;SDS011;22159;55.736;38.048;2022-08-19T04:35:44;5.75;;;5.07;;
36105;SDS011;22159;55.736;38.048;2022-08-19T04:38:11;7.35;;;5.40;;
36105;SDS011;22159;55.736;38.048;2022-08-19T04:40:41;8.10;;;4.65;;
36105;SDS011;22159;55.736;38.048;2022-08-19T04:43:26;6.22;;;4.60;;
36105;SDS011;22159;55.736;38.048;2022-08-19T04:45:52;7.95;;;5.18;;
36105;SDS011;22159;55.736;38.048;2022-08-19T04:48:18;4.88;;;4.05;;
36105;SDS011;22159;55.736;38.048;2022-08-19T04:50:54;7.68;;;4.90;;
36105;SDS011;22159;55.736;38.048;2022-08-19T04:53:31;8.45;;;4.88;;
36105;SDS011;22159;55.736;38.048;2022-08-19T04:55:58;5.55;;;4.70;;
36105;SDS011;22159;55.736;38.048;2022-08-19T04:58:27;7.70;;;4.75;;
36105;SDS011;22159;55.736;38.048;2022-08-19T05:00:53;7.70;;;4.60;;
36105;SDS011;22159;55.736;38.048;2022-08-19T05:03:19;9.10;;;4.60;;
36105;SDS011;22159;55.736;38.048;2022-08-19T05:05:46;6.68;;;4.10;;
36105;SDS011;22159;55.736;38.048;2022-08-19T05:08:14;6.32;;;4.35;;
36105;SDS011;22159;55.736;38.048;2022-08-19T05:13:10;7.18;;;4.90;;
36105;SDS011;22159;55.736;38.048;2022-08-19T05:15:36;6.95;;;4.63;;
36105;SDS011;22159;55.736;38.048;2022-08-19T05:18:02;8.65;;;4.88;;
36105;SDS011;22159;55.736;38.048;2022-08-19T05:20:46;6.70;;;4.60;;
36105;SDS011;22159;55.736;38.048;2022-08-19T05:23:31;5.43;;;4.68;;
36105;SDS011;22159;55.736;38.048;2022-08-19T05:25:57;7.25;;;4.65;;
36105;SDS011;22159;55.736;38.048;2022-08-19T05:28:23;8.60;;;4.82;;
36105;SDS011;22159;55.736;38.048;2022-08-19T05:30:49;4.95;;;4.45;;
36105;SDS011;22159;55.736;38.048;2022-08-19T05:33:16;7.93;;;4.68;;
36105;SDS011;22159;55.736;38.048;2022-08-19T05:35:42;6.53;;;4.93;;
36105;SDS011;22159;55.736;38.048;2022-08-19T05:38:09;7.63;;;4.85;;
36105;SDS011;22159;55.736;38.048;2022-08-19T05:40:36;8.57;;;4.38;;
36105;SDS011;22159;55.736;38.048;2022-08-19T05:43:03;8.13;;;5.60;;
36105;SDS011;22159;55.736;38.048;2022-08-19T05:45:29;7.35;;;5.20;;
36105;SDS011;22159;55.736;38.048;2022-08-19T05:47:55;5.63;;;4.57;;
36105;SDS011;22159;55.736;38.048;2022-08-19T05:50:23;5.57;;;4.15;;
36105;SDS011;22159;55.736;38.048;2022-08-19T05:52:50;5.88;;;4.50;;
36105;SDS011;22159;55.736;38.048;2022-08-19T05:55:16;7.10;;;4.95;;
36105;SDS011;22159;55.736;38.048;2022-08-19T05:57:45;6.07;;;4.60;;
36105;SDS011;22159;55.736;38.048;2022-08-19T06:00:11;6.97;;;4.70;;
36105;SDS011;22159;55.736;38.048;2022-08-19T06:02:37;8.07;;;4.95;;
36105;SDS011;22159;55.736;38.048;2022-08-19T06:05:04;5.60;;;4.40;;
36105;SDS011;22159;55.736;38.048;2022-08-19T06:07:34;6.13;;;4.80;;
36105;SDS011;22159;55.736;38.048;2022-08-19T06:10:00;8.90;;;4.22;;
36105;SDS011;22159;55.736;38.048;2022-08-19T06:12:29;9.15;;;5.47;;
36105;SDS011;22159;55.736;38.048;2022-08-19T06:14:59;5.72;;;4.90;;
36105;SDS011;22159;55.736;38.048;2022-08-19T06:17:26;7.03;;;5.43;;
36105;SDS011;22159;55.736;38.048;2022-08-19T06:19:54;4.43;;;4.03;;
36105;SDS011;22159;55.736;38.048;2022-08-19T06:22:20;7.30;;;4.82;;
36105;SDS011;22159;55.736;38.048;2022-08-19T06:24:46;10.27;;;5.05;;
36105;SDS011;22159;55.736;38.048;2022-08-19T06:27:12;5.45;;;4.78;;
36105;SDS011;22159;55.736;38.048;2022-08-19T06:29:38;7.03;;;5.32;;
36105;SDS011;22159;55.736;38.048;2022-08-19T06:32:04;5.60;;;4.68;;
36105;SDS011;22159;55.736;38.048;2022-08-19T06:34:31;7.68;;;4.80;;
36105;SDS011;22159;55.736;38.048;2022-08-19T06:36:58;9.90;;;5.30;;
36105;SDS011;22159;55.736;38.048;2022-08-19T06:39:30;6.65;;;4.45;;
36105;SDS011;22159;55.736;38.048;2022-08-19T06:41:57;6.88;;;4.60;;
36105;SDS011;22159;55.736;38.048;2022-08-19T06:44:24;8.23;;;5.13;;
36105;SDS011;22159;55.736;38.048;2022-08-19T06:46:51;10.27;;;4.93;;
36105;SDS011;22159;55.736;38.048;2022-08-19T06:49:17;7.47;;;4.43;;
36105;SDS011;22159;55.736;38.048;2022-08-19T06:51:46;8.38;;;5.00;;
36105;SDS011;22159;55.736;38.048;2022-08-19T06:54:13;6.15;;;4.72;;
36105;SDS011;22159;55.736;38.048;2022-08-19T06:56:39;8.30;;;5.07;;
36105;SDS011;22159;55.736;38.048;2022-08-19T06:59:06;7.63;;;4.55;;
36105;SDS011;22159;55.736;38.048;2022-08-19T07:01:37;8.77;;;5.15;;
36105;SDS011;22159;55.736;38.048;2022-08-19T07:04:04;8.60;;;5.67;;
36105;SDS011;22159;55.736;38.048;2022-08-19T07:06:30;6.95;;;5.22;;
36105;SDS011;22159;55.736;38.048;2022-08-19T07:08:57;6.80;;;5.38;;
36105;SDS011;22159;55.736;38.048;2022-08-19T07:11:23;7.78;;;5.32;;
36105;SDS011;22159;55.736;38.048;2022-08-19T07:13:49;7.03;;;4.95;;
36105;SDS011;22159;55.736;38.048;2022-08-19T07:16:18;7.40;;;4.72;;
36105;SDS011;22159;55.736;38.048;2022-08-19T07:18:45;8.10;;;5.53;;
36105;SDS011;22159;55.736;38.048;2022-08-19T07:21:13;9.35;;;5.35;;
36105;SDS011;22159;55.736;38.048;2022-08-19T07:23:40;8.90;;;5.10;;
36105;SDS011;22159;55.736;38.048;2022-08-19T07:26:07;8.20;;;5.18;;
36105;SDS011;22159;55.736;38.048;2022-08-19T07:28:33;8.43;;;4.90;;
36105;SDS011;22159;55.736;38.048;2022-08-19T07:30:59;6.10;;;5.28;;
36105;SDS011;22159;55.736;38.048;2022-08-19T07:33:26;7.78;;;5.68;;
36105;SDS011;22159;55.736;38.048;2022-08-19T07:35:55;9.63;;;5.20;;
36105;SDS011;22159;55.736;38.048;2022-08-19T07:38:21;6.72;;;5.60;;
36105;SDS011;22159;55.736;38.048;2022-08-19T07:40:47;8.50;;;5.45;;
36105;SDS011;22159;55.736;38.048;2022-08-19T07:43:13;9.30;;;5.70;;
36105;SDS011;22159;55.736;38.048;2022-08-19T07:45:40;9.23;;;5.97;;
36105;SDS011;22159;55.736;38.048;2022-08-19T07:48:07;8.50;;;5.80;;
36105;SDS011;22159;55.736;38.048;2022-08-19T07:50:33;7.78;;;5.00;;
36105;SDS011;22159;55.736;38.048;2022-08-19T07:52:59;10.80;;;5.20;;
36105;SDS011;22159;55.736;38.048;2022-08-19T07:55:25;8.75;;;5.63;;
36105;SDS011;22159;55.736;38.048;2022-08-19T07:57:52;10.05;;;5.25;;
36105;SDS011;22159;55.736;38.048;2022-08-19T08:00:18;7.88;;;5.25;;
36105;SDS011;22159;55.736;38.048;2022-08-19T08:02:45;8.90;;;5.43;;
36105;SDS011;22159;55.736;38.048;2022-08-19T08:05:11;8.45;;;5.43;;
36105;SDS011;22159;55.736;38.048;2022-08-19T08:07:55;7.78;;;5.32;;
36105;SDS011;22159;55.736;38.048;2022-08-19T08:10:40;7.22;;;4.40;;
36105;SDS011;22159;55.736;38.048;2022-08-19T08:13:06;9.38;;;5.20;;
36105;SDS011;22159;55.736;38.048;2022-08-19T08:15:33;8.98;;;4.47;;
36105;SDS011;22159;55.736;38.048;2022-08-19T08:17:59;7.65;;;4.57;;
36105;SDS011;22159;55.736;38.048;2022-08-19T08:20:25;10.25;;;5.60;;
36105;SDS011;22159;55.736;38.048;2022-08-19T08:22:51;8.90;;;4.65;;
36105;SDS011;22159;55.736;38.048;2022-08-19T08:25:35;10.48;;;5.20;;
36105;SDS011;22159;55.736;38.048;2022-08-19T08:28:03;6.97;;;4.28;;
36105;SDS011;22159;55.736;38.048;2022-08-19T08:30:29;7.43;;;4.97;;
36105;SDS011;22159;55.736;38.048;2022-08-19T08:32:57;14.15;;;4.93;;
36105;SDS011;22159;55.736;38.048;2022-08-19T08:35:23;11.68;;;4.60;;
36105;SDS011;22159;55.736;38.048;2022-08-19T08:37:51;7.47;;;3.85;;
36105;SDS011;22159;55.736;38.048;2022-08-19T08:45:52;9.13;;;3.75;;
36105;SDS011;22159;55.736;38.048;2022-08-19T08:48:43;6.20;;;4.10;;
36105;SDS011;22159;55.736;38.048;2022-08-19T08:51:11;6.50;;;3.92;;
36105;SDS011;22159;55.736;38.048;2022-08-19T08:53:38;8.73;;;4.30;;
36105;SDS011;22159;55.736;38.048;2022-08-19T08:56:06;7.50;;;3.35;;
36105;SDS011;22159;55.736;38.048;2022-08-19T08:58:56;7.72;;;4.30;;
36105;SDS011;22159;55.736;38.048;2022-08-19T09:01:18;6.15;;;4.18;;
36105;SDS011;22159;55.736;38.048;2022-08-19T09:03:45;6.85;;;4.20;;
36105;SDS011;22159;55.736;38.048;2022-08-19T09:11:12;8.75;;;3.58;;
36105;SDS011;22159;55.736;38.048;2022-08-19T09:16:13;9.57;;;3.42;;
36105;SDS011;22159;55.736;38.048;2022-08-19T09:18:44;7.82;;;3.67;;
36105;SDS011;22159;55.736;38.048;2022-08-19T09:21:12;7.97;;;3.47;;
36105;SDS011;22159;55.736;38.048;2022-08-19T09:23:38;9.10;;;3.65;;
36105;SDS011;22159;55.736;38.048;2022-08-19T09:26:11;7.63;;;3.55;;
36105;SDS011;22159;55.736;38.048;2022-08-19T09:28:39;6.43;;;3.38;;
36105;SDS011;22159;55.736;38.048;2022-08-19T09:31:08;7.63;;;3.33;;
36105;SDS011;22159;55.736;38.048;2022-08-19T09:33:34;9.68;;;3.13;;
36105;SDS011;22159;55.736;38.048;2022-08-19T09:36:05;6.60;;;3.20;;
36105;SDS011;22159;55.736;38.048;2022-08-19T09:38:32;12.70;;;3.60;;
36105;SDS011;22159;55.736;38.048;2022-08-19T09:41:02;15.65;;;3.83;;
36105;SDS011;22159;55.736;38.048;2022-08-19T09:43:29;8.85;;;3.67;;
36105;SDS011;22159;55.736;38.048;2022-08-19T09:45:56;10.10;;;3.67;;
36105;SDS011;22159;55.736;38.048;2022-08-19T09:48:22;7.93;;;3.42;;
36105;SDS011;22159;55.736;38.048;2022-08-19T09:50:48;7.88;;;3.40;;
36105;SDS011;22159;55.736;38.048;2022-08-19T09:53:16;8.13;;;3.08;;
36105;SDS011;22159;55.736;38.048;2022-08-19T09:55:42;9.55;;;3.40;;
36105;SDS011;22159;55.736;38.048;2022-08-19T09:58:08;6.53;;;3.05;;
36105;SDS011;22159;55.736;38.048;2022-08-19T10:00:36;8.13;;;3.05;;
36105;SDS011;22159;55.736;38.048;2022-08-19T10:03:03;6.18;;;2.85;;
36105;SDS011;22159;55.736;38.048;2022-08-19T10:05:30;7.80;;;3.28;;
36105;SDS011;22159;55.736;38.048;2022-08-19T10:08:24;6.90;;;2.60;;
36105;SDS011;22159;55.736;38.048;2022-08-19T10:10:51;9.30;;;3.40;;
36105;SDS011;22159;55.736;38.048;2022-08-19T10:13:18;6.93;;;2.70;;
36105;SDS011;22159;55.736;38.048;2022-08-19T10:15:48;12.05;;;3.25;;
36105;SDS011;22159;55.736;38.048;2022-08-19T10:18:18;7.45;;;2.80;;
36105;SDS011;22159;55.736;38.048;2022-08-19T10:20:45;6.70;;;3.05;;
36105;SDS011;22159;55.736;38.048;2022-08-19T10:23:12;8.02;;;2.88;;
36105;SDS011;22159;55.736;38.048;2022-08-19T10:25:38;8.75;;;3.05;;
36105;SDS011;22159;55.736;38.048;2022-08-19T10:28:04;8.13;;;3.13;;
36105;SDS011;22159;55.736;38.048;2022-08-19T10:30:35;8.00;;;2.80;;
36105;SDS011;22159;55.736;38.048;2022-08-19T10:33:01;6.45;;;2.80;;
36105;SDS011;22159;55.736;38.048;2022-08-19T10:35:27;10.73;;;3.05;;
36105;SDS011;22159;55.736;38.048;2022-08-19T10:37:54;6.70;;;2.67;;
36105;SDS011;22159;55.736;38.048;2022-08-19T10:40:26;6.05;;;2.65;;
36105;SDS011;22159;55.736;38.048;2022-08-19T10:42:53;6.28;;;2.67;;
36105;SDS011;22159;55.736;38.048;2022-08-19T10:45:20;7.75;;;2.67;;
36105;SDS011;22159;55.736;38.048;2022-08-19T10:47:48;10.55;;;2.65;;
36105;SDS011;22159;55.736;38.048;2022-08-19T10:50:14;6.47;;;2.72;;
36105;SDS011;22159;55.736;38.048;2022-08-19T10:53:02;4.53;;;2.50;;
36105;SDS011;22159;55.736;38.048;2022-08-19T10:55:29;7.13;;;2.72;;
36105;SDS011;22159;55.736;38.048;2022-08-19T10:58:14;6.28;;;2.58;;
36105;SDS011;22159;55.736;38.048;2022-08-19T11:00:41;10.48;;;2.40;;
36105;SDS011;22159;55.736;38.048;2022-08-19T11:03:08;7.35;;;2.58;;
36105;SDS011;22159;55.736;38.048;2022-08-19T11:05:34;7.80;;;2.72;;
36105;SDS011;22159;55.736;38.048;2022-08-19T11:08:02;4.00;;;2.53;;
36105;SDS011;22159;55.736;38.048;2022-08-19T11:10:28;3.35;;;2.30;;
36105;SDS011;22159;55.736;38.048;2022-08-19T11:12:54;5.75;;;2.47;;
36105;SDS011;22159;55.736;38.048;2022-08-19T11:15:20;6.05;;;2.70;;
36105;SDS011;22159;55.736;38.048;2022-08-19T11:17:46;6.20;;;2.50;;
36105;SDS011;22159;55.736;38.048;2022-08-19T11:20:13;5.07;;;2.55;;
36105;SDS011;22159;55.736;38.048;2022-08-19T11:22:40;4.82;;;2.95;;
36105;SDS011;22159;55.736;38.048;2022-08-19T11:25:07;2.97;;;2.50;;
36105;SDS011;22159;55.736;38.048;2022-08-19T11:27:37;6.10;;;2.50;;
36105;SDS011;22159;55.736;38.048;2022-08-19T11:30:03;5.32;;;2.40;;
36105;SDS011;22159;55.736;38.048;2022-08-19T11:32:29;8.20;;;3.60;;
36105;SDS011;22159;55.736;38.048;2022-08-19T11:34:55;20.00;;;6.38;;
36105;SDS011;22159;55.736;38.048;2022-08-19T11:37:21;21.27;;;6.93;;
36105;SDS011;22159;55.736;38.048;2022-08-19T11:39:47;18.20;;;7.07;;
36105;SDS011;22159;55.736;38.048;2022-08-19T11:42:13;25.35;;;6.47;;
36105;SDS011;22159;55.736;38.048;2022-08-19T11:44:58;16.13;;;6.15;;
36105;SDS011;22159;55.736;38.048;2022-08-19T11:47:24;12.27;;;5.10;;
36105;SDS011;22159;55.736;38.048;2022-08-19T11:49:51;12.00;;;5.00;;
36105;SDS011;22159;55.736;38.048;2022-08-19T11:52:18;12.10;;;4.28;;
36105;SDS011;22159;55.736;38.048;2022-08-19T11:54:44;10.88;;;4.47;;
36105;SDS011;22159;55.736;38.048;2022-08-19T11:57:10;8.82;;;4.05;;
36105;SDS011;22159;55.736;38.048;2022-08-19T11:59:36;10.30;;;3.70;;
36105;SDS011;22159;55.736;38.048;2022-08-19T12:02:02;8.80;;;3.38;;
36105;SDS011;22159;55.736;38.048;2022-08-19T12:04:28;7.20;;;3.92;;
36105;SDS011;22159;55.736;38.048;2022-08-19T12:06:54;8.88;;;3.72;;
36105;SDS011;22159;55.736;38.048;2022-08-19T12:09:21;7.70;;;3.60;;
36105;SDS011;22159;55.736;38.048;2022-08-19T12:11:47;7.00;;;3.53;;
36105;SDS011;22159;55.736;38.048;2022-08-19T12:14:13;5.53;;;3.42;;
36105;SDS011;22159;55.736;38.048;2022-08-19T12:16:39;6.45;;;2.70;;
36105;SDS011;22159;55.736;38.048;2022-08-19T12:19:06;7.40;;;3.40;;
36105;SDS011;22159;55.736;38.048;2022-08-19T12:21:33;4.85;;;3.10;;
36105;SDS011;22159;55.736;38.048;2022-08-19T12:24:00;8.85;;;3.35;;
36105;SDS011;22159;55.736;38.048;2022-08-19T12:26:27;6.90;;;3.13;;
36105;SDS011;22159;55.736;38.048;2022-08-19T12:28:54;8.30;;;3.28;;
36105;SDS011;22159;55.736;38.048;2022-08-19T12:31:20;4.47;;;2.90;;
36105;SDS011;22159;55.736;38.048;2022-08-19T12:33:46;6.20;;;2.90;;
36105;SDS011;22159;55.736;38.048;2022-08-19T12:36:14;8.90;;;3.05;;
36105;SDS011;22159;55.736;38.048;2022-08-19T12:38:40;5.15;;;3.05;;
36105;SDS011;22159;55.736;38.048;2022-08-19T12:41:06;8.45;;;2.97;;
36105;SDS011;22159;55.736;38.048;2022-08-19T12:43:34;5.22;;;3.05;;
36105;SDS011;22159;55.736;38.048;2022-08-19T12:46:01;5.43;;;3.05;;
36105;SDS011;22159;55.736;38.048;2022-08-19T12:48:29;4.65;;;3.10;;
36105;SDS011;22159;55.736;38.048;2022-08-19T12:50:55;5.72;;;3.05;;
36105;SDS011;22159;55.736;38.048;2022-08-19T12:53:21;5.00;;;2.63;;
36105;SDS011;22159;55.736;38.048;2022-08-19T12:55:47;3.83;;;3.03;;
36105;SDS011;22159;55.736;38.048;2022-08-19T12:58:13;4.53;;;2.78;;
36105;SDS011;22159;55.736;38.048;2022-08-19T13:00:39;4.15;;;3.35;;
36105;SDS011;22159;55.736;38.048;2022-08-19T13:03:06;4.28;;;2.50;;
36105;SDS011;22159;55.736;38.048;2022-08-19T13:05:32;7.15;;;2.95;;
36105;SDS011;22159;55.736;38.048;2022-08-19T13:07:59;6.47;;;3.00;;
36105;SDS011;22159;55.736;38.048;2022-08-19T13:10:30;5.25;;;2.95;;
36105;SDS011;22159;55.736;38.048;2022-08-19T13:12:59;7.32;;;3.22;;
36105;SDS011;22159;55.736;38.048;2022-08-19T13:15:26;7.18;;;3.00;;
36105;SDS011;22159;55.736;38.048;2022-08-19T13:17:53;6.60;;;2.72;;
36105;SDS011;22159;55.736;38.048;2022-08-19T13:20:21;3.97;;;2.50;;
36105;SDS011;22159;55.736;38.048;2022-08-19T13:22:47;5.63;;;2.95;;
36105;SDS011;22159;55.736;38.048;2022-08-19T13:25:14;6.47;;;2.80;;
36105;SDS011;22159;55.736;38.048;2022-08-19T13:27:42;5.70;;;2.70;;
36105;SDS011;22159;55.736;38.048;2022-08-19T13:30:09;4.60;;;3.22;;
36105;SDS011;22159;55.736;38.048;2022-08-19T13:32:54;4.40;;;2.63;;
36105;SDS011;22159;55.736;38.048;2022-08-19T13:35:35;7.13;;;3.20;;
36105;SDS011;22159;55.736;38.048;2022-08-19T13:38:02;6.85;;;3.55;;
36105;SDS011;22159;55.736;38.048;2022-08-19T13:40:29;6.47;;;2.90;;
36105;SDS011;22159;55.736;38.048;2022-08-19T13:42:56;6.18;;;3.55;;
36105;SDS011;22159;55.736;38.048;2022-08-19T13:45:23;5.82;;;3.30;;
36105;SDS011;22159;55.736;38.048;2022-08-19T13:47:51;2.90;;;2.63;;
36105;SDS011;22159;55.736;38.048;2022-08-19T13:50:20;3.85;;;2.60;;
36105;SDS011;22159;55.736;38.048;2022-08-19T13:52:46;3.42;;;3.10;;
36105;SDS011;22159;55.736;38.048;2022-08-19T13:55:13;7.05;;;3.22;;
36105;SDS011;22159;55.736;38.048;2022-08-19T13:57:40;4.03;;;2.83;;
36105;SDS011;22159;55.736;38.048;2022-08-19T14:00:11;5.20;;;2.85;;
36105;SDS011;22159;55.736;38.048;2022-08-19T14:02:39;6.10;;;3.00;;
36105;SDS011;22159;55.736;38.048;2022-08-19T14:05:05;4.20;;;2.75;;
36105;SDS011;22159;55.736;38.048;2022-08-19T14:07:32;4.13;;;3.15;;
36105;SDS011;22159;55.736;38.048;2022-08-19T14:09:58;4.38;;;2.70;;
36105;SDS011;22159;55.736;38.048;2022-08-19T14:12:24;3.60;;;2.92;;
36105;SDS011;22159;55.736;38.048;2022-08-19T14:14:50;6.68;;;3.13;;
36105;SDS011;22159;55.736;38.048;2022-08-19T14:17:16;8.25;;;3.40;;
36105;SDS011;22159;55.736;38.048;2022-08-19T14:19:42;5.65;;;3.13;;
36105;SDS011;22159;55.736;38.048;2022-08-19T14:22:09;4.75;;;3.33;;
36105;SDS011;22159;55.736;38.048;2022-08-19T14:24:36;6.18;;;3.10;;
36105;SDS011;22159;55.736;38.048;2022-08-19T14:27:04;3.50;;;3.10;;
36105;SDS011;22159;55.736;38.048;2022-08-19T14:29:31;6.68;;;2.88;;
36105;SDS011;22159;55.736;38.048;2022-08-19T14:31:57;7.60;;;3.33;;
36105;SDS011;22159;55.736;38.048;2022-08-19T14:34:24;5.63;;;2.92;;
36105;SDS011;22159;55.736;38.048;2022-08-19T14:36:51;5.63;;;2.90;;
36105;SDS011;22159;55.736;38.048;2022-08-19T14:39:17;5.88;;;3.17;;
36105;SDS011;22159;55.736;38.048;2022-08-19T14:41:43;4.70;;;3.15;;
36105;SDS011;22159;55.736;38.048;2022-08-19T14:44:10;4.50;;;2.95;;
36105;SDS011;22159;55.736;38.048;2022-08-19T14:46:37;7.68;;;3.47;;
36105;SDS011;22159;55.736;38.048;2022-08-19T14:49:04;5.28;;;3.10;;
36105;SDS011;22159;55.736;38.048;2022-08-19T14:51:30;6.07;;;2.72;;
36105;SDS011;22159;55.736;38.048;2022-08-19T14:53:56;4.20;;;3.42;;
36105;SDS011;22159;55.736;38.048;2022-08-19T14:56:24;4.18;;;3.20;;